Lake Zurich, Illinois
Current Conditions -  °F | °C
As of 10:52 PM on Saturday 20 Dec 2014 (Local Time) from KPWK Reporting Station
Overcast Overcast  
Wind Chill: 26°   Ceiling: 3600
Heat Index: 32°   Visibility: 9mi
Dew Point: 25°   Wind: 7mph
Humidity: 75%   Direction: 180°S
Pressure: 30.26"   Gusts: NA
Location:  42.2°N, 88.09°W
Report Text: KPWK 210452Z AUTO 18006KT 9SM OVC036 00/M04 A3026 RMK AO2 SLP253 T00001039
Loading
Personal Weather Stations






























Interactive Weather Map New forecast layout! Learn more

10-Day Weather Forecast

Advertisements
Track Severe Weather on mobile